sensor_id;sensor_type;location;lat;lon;timestamp;P1;durP1;ratioP1;P2;durP2;ratioP2
82495;SDS011;72133;42.522;24.800;2023-12-04T00:00:26;10.38;;;6.50;;
82495;SDS011;72133;42.522;24.800;2023-12-04T00:02:52;7.32;;;5.55;;
82495;SDS011;72133;42.522;24.800;2023-12-04T00:05:18;7.93;;;4.97;;
82495;SDS011;72133;42.522;24.800;2023-12-04T00:07:43;10.02;;;7.60;;
82495;SDS011;72133;42.522;24.800;2023-12-04T00:10:09;11.50;;;8.60;;
82495;SDS011;72133;42.522;24.800;2023-12-04T00:12:35;12.88;;;9.23;;
82495;SDS011;72133;42.522;24.800;2023-12-04T00:15:00;13.50;;;9.68;;
82495;SDS011;72133;42.522;24.800;2023-12-04T00:17:26;14.63;;;10.98;;
82495;SDS011;72133;42.522;24.800;2023-12-04T00:19:52;15.02;;;11.48;;
82495;SDS011;72133;42.522;24.800;2023-12-04T00:22:17;19.05;;;12.15;;
82495;SDS011;72133;42.522;24.800;2023-12-04T00:24:43;13.40;;;9.63;;
82495;SDS011;72133;42.522;24.800;2023-12-04T00:27:08;19.10;;;13.43;;
82495;SDS011;72133;42.522;24.800;2023-12-04T00:29:35;15.23;;;10.68;;
82495;SDS011;72133;42.522;24.800;2023-12-04T00:32:01;20.63;;;13.50;;
82495;SDS011;72133;42.522;24.800;2023-12-04T00:34:27;12.35;;;9.02;;
82495;SDS011;72133;42.522;24.800;2023-12-04T00:36:52;11.57;;;9.20;;
82495;SDS011;72133;42.522;24.800;2023-12-04T00:39:18;15.88;;;10.90;;
82495;SDS011;72133;42.522;24.800;2023-12-04T00:41:43;18.40;;;11.93;;
82495;SDS011;72133;42.522;24.800;2023-12-04T00:44:09;15.68;;;10.27;;
82495;SDS011;72133;42.522;24.800;2023-12-04T00:46:35;11.43;;;7.95;;
82495;SDS011;72133;42.522;24.800;2023-12-04T00:49:00;11.25;;;8.85;;
82495;SDS011;72133;42.522;24.800;2023-12-04T00:51:26;10.98;;;8.38;;
82495;SDS011;72133;42.522;24.800;2023-12-04T00:53:53;11.25;;;8.75;;
82495;SDS011;72133;42.522;24.800;2023-12-04T00:56:18;11.60;;;9.00;;
82495;SDS011;72133;42.522;24.800;2023-12-04T00:58:45;12.32;;;9.38;;
82495;SDS011;72133;42.522;24.800;2023-12-04T01:01:11;12.02;;;8.95;;
82495;SDS011;72133;42.522;24.800;2023-12-04T01:03:37;12.73;;;9.13;;
82495;SDS011;72133;42.522;24.800;2023-12-04T01:06:03;14.25;;;10.07;;
82495;SDS011;72133;42.522;24.800;2023-12-04T01:08:29;15.07;;;10.65;;
82495;SDS011;72133;42.522;24.800;2023-12-04T01:10:54;12.43;;;9.43;;
82495;SDS011;72133;42.522;24.800;2023-12-04T01:13:20;12.80;;;9.30;;
82495;SDS011;72133;42.522;24.800;2023-12-04T01:15:46;14.38;;;9.75;;
82495;SDS011;72133;42.522;24.800;2023-12-04T01:18:13;12.60;;;9.38;;
82495;SDS011;72133;42.522;24.800;2023-12-04T01:20:39;12.48;;;9.18;;
82495;SDS011;72133;42.522;24.800;2023-12-04T01:23:06;9.75;;;7.72;;
82495;SDS011;72133;42.522;24.800;2023-12-04T01:25:31;7.85;;;5.07;;
82495;SDS011;72133;42.522;24.800;2023-12-04T01:27:57;6.00;;;3.53;;
82495;SDS011;72133;42.522;24.800;2023-12-04T01:30:22;5.43;;;3.20;;
82495;SDS011;72133;42.522;24.800;2023-12-04T01:32:48;4.15;;;3.00;;
82495;SDS011;72133;42.522;24.800;2023-12-04T01:35:14;4.03;;;3.05;;
82495;SDS011;72133;42.522;24.800;2023-12-04T01:37:39;4.38;;;3.25;;
82495;SDS011;72133;42.522;24.800;2023-12-04T01:40:05;4.43;;;2.80;;
82495;SDS011;72133;42.522;24.800;2023-12-04T01:42:32;5.10;;;2.60;;
82495;SDS011;72133;42.522;24.800;2023-12-04T01:44:58;6.88;;;3.42;;
82495;SDS011;72133;42.522;24.800;2023-12-04T01:47:23;3.72;;;2.50;;
82495;SDS011;72133;42.522;24.800;2023-12-04T01:49:49;6.25;;;3.20;;
82495;SDS011;72133;42.522;24.800;2023-12-04T01:52:15;4.40;;;3.17;;
82495;SDS011;72133;42.522;24.800;2023-12-04T01:54:41;5.40;;;2.92;;
82495;SDS011;72133;42.522;24.800;2023-12-04T01:57:07;4.32;;;2.55;;
82495;SDS011;72133;42.522;24.800;2023-12-04T01:59:33;4.22;;;2.95;;
82495;SDS011;72133;42.522;24.800;2023-12-04T02:01:59;4.20;;;2.88;;
82495;SDS011;72133;42.522;24.800;2023-12-04T02:04:24;4.10;;;2.97;;
82495;SDS011;72133;42.522;24.800;2023-12-04T02:06:50;3.78;;;2.60;;
82495;SDS011;72133;42.522;24.800;2023-12-04T02:09:16;4.32;;;3.03;;
82495;SDS011;72133;42.522;24.800;2023-12-04T02:11:42;4.70;;;3.25;;
82495;SDS011;72133;42.522;24.800;2023-12-04T02:14:08;4.80;;;3.05;;
82495;SDS011;72133;42.522;24.800;2023-12-04T02:16:35;4.65;;;3.17;;
82495;SDS011;72133;42.522;24.800;2023-12-04T02:19:06;5.05;;;3.20;;
82495;SDS011;72133;42.522;24.800;2023-12-04T02:21:32;4.43;;;3.25;;
82495;SDS011;72133;42.522;24.800;2023-12-04T02:23:58;5.90;;;3.58;;
82495;SDS011;72133;42.522;24.800;2023-12-04T02:26:24;7.20;;;3.50;;
82495;SDS011;72133;42.522;24.800;2023-12-04T02:28:55;4.55;;;3.13;;
82495;SDS011;72133;42.522;24.800;2023-12-04T02:31:24;4.70;;;3.58;;
82495;SDS011;72133;42.522;24.800;2023-12-04T02:33:52;5.30;;;3.97;;
82495;SDS011;72133;42.522;24.800;2023-12-04T02:36:18;4.53;;;3.42;;
82495;SDS011;72133;42.522;24.800;2023-12-04T02:38:45;4.78;;;3.20;;
82495;SDS011;72133;42.522;24.800;2023-12-04T02:41:10;5.47;;;3.60;;
82495;SDS011;72133;42.522;24.800;2023-12-04T02:43:36;5.32;;;3.85;;
82495;SDS011;72133;42.522;24.800;2023-12-04T02:46:02;5.78;;;3.67;;
82495;SDS011;72133;42.522;24.800;2023-12-04T02:48:27;4.63;;;3.22;;
82495;SDS011;72133;42.522;24.800;2023-12-04T02:50:53;5.25;;;3.63;;
82495;SDS011;72133;42.522;24.800;2023-12-04T02:53:18;5.13;;;3.58;;
82495;SDS011;72133;42.522;24.800;2023-12-04T02:55:44;4.75;;;3.70;;
82495;SDS011;72133;42.522;24.800;2023-12-04T02:58:10;5.32;;;3.80;;
82495;SDS011;72133;42.522;24.800;2023-12-04T03:00:35;5.10;;;3.80;;
82495;SDS011;72133;42.522;24.800;2023-12-04T03:03:01;6.40;;;3.78;;
82495;SDS011;72133;42.522;24.800;2023-12-04T03:05:27;5.47;;;4.07;;
82495;SDS011;72133;42.522;24.800;2023-12-04T03:07:52;4.82;;;3.58;;
82495;SDS011;72133;42.522;24.800;2023-12-04T03:10:18;6.05;;;3.63;;
82495;SDS011;72133;42.522;24.800;2023-12-04T03:12:44;5.05;;;3.88;;
82495;SDS011;72133;42.522;24.800;2023-12-04T03:15:12;6.10;;;3.75;;
82495;SDS011;72133;42.522;24.800;2023-12-04T03:17:38;5.07;;;3.72;;
82495;SDS011;72133;42.522;24.800;2023-12-04T03:20:04;6.43;;;4.00;;
82495;SDS011;72133;42.522;24.800;2023-12-04T03:22:33;5.85;;;3.53;;
82495;SDS011;72133;42.522;24.800;2023-12-04T03:25:00;5.45;;;3.63;;
82495;SDS011;72133;42.522;24.800;2023-12-04T03:27:26;6.72;;;3.83;;
82495;SDS011;72133;42.522;24.800;2023-12-04T03:29:51;6.07;;;3.90;;
82495;SDS011;72133;42.522;24.800;2023-12-04T03:32:17;7.40;;;4.38;;
82495;SDS011;72133;42.522;24.800;2023-12-04T03:34:43;6.95;;;4.65;;
82495;SDS011;72133;42.522;24.800;2023-12-04T03:37:08;7.88;;;4.85;;
82495;SDS011;72133;42.522;24.800;2023-12-04T03:39:34;7.97;;;4.90;;
82495;SDS011;72133;42.522;24.800;2023-12-04T03:41:59;8.25;;;5.53;;
82495;SDS011;72133;42.522;24.800;2023-12-04T03:44:25;6.90;;;5.07;;
82495;SDS011;72133;42.522;24.800;2023-12-04T03:46:51;6.95;;;5.15;;
82495;SDS011;72133;42.522;24.800;2023-12-04T03:49:17;8.20;;;4.95;;
82495;SDS011;72133;42.522;24.800;2023-12-04T03:51:42;8.00;;;5.40;;
82495;SDS011;72133;42.522;24.800;2023-12-04T03:54:08;8.10;;;5.28;;
82495;SDS011;72133;42.522;24.800;2023-12-04T03:56:34;8.55;;;5.47;;
82495;SDS011;72133;42.522;24.800;2023-12-04T03:58:59;6.97;;;5.05;;
82495;SDS011;72133;42.522;24.800;2023-12-04T04:01:25;7.40;;;5.30;;
82495;SDS011;72133;42.522;24.800;2023-12-04T04:03:51;7.88;;;5.10;;
82495;SDS011;72133;42.522;24.800;2023-12-04T04:06:16;7.85;;;5.38;;
82495;SDS011;72133;42.522;24.800;2023-12-04T04:08:42;7.72;;;5.85;;
82495;SDS011;72133;42.522;24.800;2023-12-04T04:11:07;8.15;;;5.25;;
82495;SDS011;72133;42.522;24.800;2023-12-04T04:13:33;6.63;;;5.28;;
82495;SDS011;72133;42.522;24.800;2023-12-04T04:15:59;7.07;;;5.70;;
82495;SDS011;72133;42.522;24.800;2023-12-04T04:18:24;7.28;;;5.43;;
82495;SDS011;72133;42.522;24.800;2023-12-04T04:20:50;7.70;;;5.45;;
82495;SDS011;72133;42.522;24.800;2023-12-04T04:23:16;6.85;;;5.13;;
82495;SDS011;72133;42.522;24.800;2023-12-04T04:25:41;11.30;;;5.97;;
82495;SDS011;72133;42.522;24.800;2023-12-04T04:28:07;7.72;;;5.55;;
82495;SDS011;72133;42.522;24.800;2023-12-04T04:30:32;6.40;;;4.70;;
82495;SDS011;72133;42.522;24.800;2023-12-04T04:32:58;8.30;;;6.10;;
82495;SDS011;72133;42.522;24.800;2023-12-04T04:35:24;8.13;;;5.88;;
82495;SDS011;72133;42.522;24.800;2023-12-04T04:37:50;8.43;;;5.78;;
82495;SDS011;72133;42.522;24.800;2023-12-04T04:40:15;8.23;;;5.97;;
82495;SDS011;72133;42.522;24.800;2023-12-04T04:42:41;7.85;;;5.97;;
82495;SDS011;72133;42.522;24.800;2023-12-04T04:45:07;9.10;;;6.55;;
82495;SDS011;72133;42.522;24.800;2023-12-04T04:47:33;9.00;;;6.53;;
82495;SDS011;72133;42.522;24.800;2023-12-04T04:49:58;8.93;;;6.60;;
82495;SDS011;72133;42.522;24.800;2023-12-04T04:52:24;8.68;;;6.45;;
82495;SDS011;72133;42.522;24.800;2023-12-04T04:54:50;8.15;;;6.20;;
82495;SDS011;72133;42.522;24.800;2023-12-04T04:57:18;8.00;;;6.47;;
82495;SDS011;72133;42.522;24.800;2023-12-04T04:59:44;9.27;;;6.57;;
82495;SDS011;72133;42.522;24.800;2023-12-04T05:02:09;7.50;;;6.63;;
82495;SDS011;72133;42.522;24.800;2023-12-04T05:04:35;9.32;;;7.18;;
82495;SDS011;72133;42.522;24.800;2023-12-04T05:07:01;8.65;;;6.93;;
82495;SDS011;72133;42.522;24.800;2023-12-04T05:09:27;7.50;;;6.38;;
82495;SDS011;72133;42.522;24.800;2023-12-04T05:11:52;8.82;;;6.80;;
82495;SDS011;72133;42.522;24.800;2023-12-04T05:14:18;10.43;;;7.78;;
82495;SDS011;72133;42.522;24.800;2023-12-04T05:16:44;9.23;;;7.00;;
82495;SDS011;72133;42.522;24.800;2023-12-04T05:19:09;8.70;;;7.15;;
82495;SDS011;72133;42.522;24.800;2023-12-04T05:21:35;8.60;;;6.80;;
82495;SDS011;72133;42.522;24.800;2023-12-04T05:24:00;8.07;;;6.63;;
82495;SDS011;72133;42.522;24.800;2023-12-04T05:26:26;10.73;;;8.35;;
82495;SDS011;72133;42.522;24.800;2023-12-04T05:28:52;9.20;;;7.30;;
82495;SDS011;72133;42.522;24.800;2023-12-04T05:31:17;9.88;;;7.90;;
82495;SDS011;72133;42.522;24.800;2023-12-04T05:33:43;9.48;;;7.20;;
82495;SDS011;72133;42.522;24.800;2023-12-04T05:36:09;9.25;;;7.25;;
82495;SDS011;72133;42.522;24.800;2023-12-04T05:38:35;8.90;;;7.00;;
82495;SDS011;72133;42.522;24.800;2023-12-04T05:41:00;8.43;;;7.22;;
82495;SDS011;72133;42.522;24.800;2023-12-04T05:43:26;8.65;;;7.20;;
82495;SDS011;72133;42.522;24.800;2023-12-04T05:45:51;10.15;;;7.55;;
82495;SDS011;72133;42.522;24.800;2023-12-04T05:48:17;45.33;;;29.05;;
82495;SDS011;72133;42.522;24.800;2023-12-04T05:50:43;28.27;;;20.35;;
82495;SDS011;72133;42.522;24.800;2023-12-04T05:53:09;24.70;;;16.58;;
82495;SDS011;72133;42.522;24.800;2023-12-04T05:55:34;10.77;;;8.30;;
82495;SDS011;72133;42.522;24.800;2023-12-04T05:58:00;9.02;;;7.60;;
82495;SDS011;72133;42.522;24.800;2023-12-04T06:00:27;9.63;;;7.95;;
82495;SDS011;72133;42.522;24.800;2023-12-04T06:02:53;19.83;;;14.43;;
82495;SDS011;72133;42.522;24.800;2023-12-04T06:05:18;17.42;;;14.82;;
82495;SDS011;72133;42.522;24.800;2023-12-04T06:07:44;12.18;;;9.43;;
82495;SDS011;72133;42.522;24.800;2023-12-04T06:10:10;11.00;;;7.88;;
82495;SDS011;72133;42.522;24.800;2023-12-04T06:12:35;9.70;;;7.57;;
82495;SDS011;72133;42.522;24.800;2023-12-04T06:15:01;18.77;;;15.57;;
82495;SDS011;72133;42.522;24.800;2023-12-04T06:17:27;15.10;;;11.93;;
82495;SDS011;72133;42.522;24.800;2023-12-04T06:19:53;13.70;;;10.77;;
82495;SDS011;72133;42.522;24.800;2023-12-04T06:22:19;14.48;;;10.90;;
82495;SDS011;72133;42.522;24.800;2023-12-04T06:24:46;17.35;;;14.35;;
82495;SDS011;72133;42.522;24.800;2023-12-04T06:27:16;16.10;;;13.65;;
82495;SDS011;72133;42.522;24.800;2023-12-04T06:29:45;11.67;;;9.07;;
82495;SDS011;72133;42.522;24.800;2023-12-04T06:32:12;9.85;;;7.43;;
82495;SDS011;72133;42.522;24.800;2023-12-04T06:34:38;9.32;;;7.78;;
82495;SDS011;72133;42.522;24.800;2023-12-04T06:37:07;9.32;;;7.88;;
82495;SDS011;72133;42.522;24.800;2023-12-04T06:39:35;12.10;;;9.30;;
82495;SDS011;72133;42.522;24.800;2023-12-04T06:42:02;10.43;;;8.02;;
82495;SDS011;72133;42.522;24.800;2023-12-04T06:44:29;9.60;;;7.65;;
82495;SDS011;72133;42.522;24.800;2023-12-04T06:46:55;10.60;;;8.38;;
82495;SDS011;72133;42.522;24.800;2023-12-04T06:49:22;11.18;;;8.88;;
82495;SDS011;72133;42.522;24.800;2023-12-04T06:51:48;9.73;;;7.75;;
82495;SDS011;72133;42.522;24.800;2023-12-04T06:54:14;11.73;;;7.78;;
82495;SDS011;72133;42.522;24.800;2023-12-04T06:56:39;11.48;;;8.63;;
82495;SDS011;72133;42.522;24.800;2023-12-04T06:59:05;14.52;;;10.50;;
82495;SDS011;72133;42.522;24.800;2023-12-04T07:01:31;17.50;;;13.10;;
82495;SDS011;72133;42.522;24.800;2023-12-04T07:03:57;16.95;;;11.80;;
82495;SDS011;72133;42.522;24.800;2023-12-04T07:06:23;16.25;;;12.38;;
82495;SDS011;72133;42.522;24.800;2023-12-04T07:08:50;17.23;;;12.88;;
82495;SDS011;72133;42.522;24.800;2023-12-04T07:11:16;16.65;;;12.38;;
82495;SDS011;72133;42.522;24.800;2023-12-04T07:13:41;18.48;;;13.10;;
82495;SDS011;72133;42.522;24.800;2023-12-04T07:16:07;17.52;;;12.57;;
82495;SDS011;72133;42.522;24.800;2023-12-04T07:18:33;19.58;;;12.90;;
82495;SDS011;72133;42.522;24.800;2023-12-04T07:21:00;20.80;;;14.90;;
82495;SDS011;72133;42.522;24.800;2023-12-04T07:23:25;16.80;;;14.38;;
82495;SDS011;72133;42.522;24.800;2023-12-04T07:25:51;21.20;;;15.30;;
82495;SDS011;72133;42.522;24.800;2023-12-04T07:28:17;22.08;;;16.15;;
82495;SDS011;72133;42.522;24.800;2023-12-04T07:30:43;34.10;;;23.40;;
82495;SDS011;72133;42.522;24.800;2023-12-04T07:33:09;38.90;;;25.65;;
82495;SDS011;72133;42.522;24.800;2023-12-04T07:35:34;30.65;;;22.27;;
82495;SDS011;72133;42.522;24.800;2023-12-04T07:38:00;34.13;;;25.25;;
82495;SDS011;72133;42.522;24.800;2023-12-04T07:40:26;33.20;;;23.85;;
82495;SDS011;72133;42.522;24.800;2023-12-04T07:42:51;32.42;;;25.40;;
82495;SDS011;72133;42.522;24.800;2023-12-04T07:45:17;30.63;;;22.90;;
82495;SDS011;72133;42.522;24.800;2023-12-04T07:47:43;28.15;;;21.08;;
82495;SDS011;72133;42.522;24.800;2023-12-04T07:50:09;31.88;;;20.10;;
82495;SDS011;72133;42.522;24.800;2023-12-04T07:52:34;28.23;;;20.80;;
82495;SDS011;72133;42.522;24.800;2023-12-04T07:55:00;29.50;;;20.83;;
82495;SDS011;72133;42.522;24.800;2023-12-04T07:57:26;28.35;;;19.92;;
82495;SDS011;72133;42.522;24.800;2023-12-04T07:59:52;27.73;;;19.20;;
82495;SDS011;72133;42.522;24.800;2023-12-04T08:02:18;28.40;;;19.27;;
82495;SDS011;72133;42.522;24.800;2023-12-04T08:04:44;23.80;;;17.95;;
82495;SDS011;72133;42.522;24.800;2023-12-04T08:07:09;27.25;;;20.33;;
82495;SDS011;72133;42.522;24.800;2023-12-04T08:09:35;26.70;;;19.50;;
82495;SDS011;72133;42.522;24.800;2023-12-04T08:12:01;26.60;;;19.10;;
82495;SDS011;72133;42.522;24.800;2023-12-04T08:14:26;27.50;;;19.70;;
82495;SDS011;72133;42.522;24.800;2023-12-04T08:16:53;27.77;;;18.73;;
82495;SDS011;72133;42.522;24.800;2023-12-04T08:19:19;27.17;;;19.10;;
82495;SDS011;72133;42.522;24.800;2023-12-04T08:21:44;25.77;;;18.83;;
82495;SDS011;72133;42.522;24.800;2023-12-04T08:24:11;24.90;;;17.52;;
82495;SDS011;72133;42.522;24.800;2023-12-04T08:26:37;21.08;;;16.67;;
82495;SDS011;72133;42.522;24.800;2023-12-04T08:29:02;23.42;;;16.35;;
82495;SDS011;72133;42.522;24.800;2023-12-04T08:31:28;19.88;;;15.88;;
82495;SDS011;72133;42.522;24.800;2023-12-04T08:33:54;22.40;;;16.80;;
82495;SDS011;72133;42.522;24.800;2023-12-04T08:36:19;22.13;;;15.25;;
82495;SDS011;72133;42.522;24.800;2023-12-04T08:38:45;21.38;;;15.73;;
82495;SDS011;72133;42.522;24.800;2023-12-04T08:41:11;20.00;;;15.27;;
82495;SDS011;72133;42.522;24.800;2023-12-04T08:43:37;21.58;;;15.65;;
82495;SDS011;72133;42.522;24.800;2023-12-04T08:46:02;22.38;;;15.43;;
82495;SDS011;72133;42.522;24.800;2023-12-04T08:48:28;19.95;;;15.00;;
82495;SDS011;72133;42.522;24.800;2023-12-04T08:50:55;19.13;;;14.82;;
82495;SDS011;72133;42.522;24.800;2023-12-04T08:53:21;21.33;;;15.52;;
82495;SDS011;72133;42.522;24.800;2023-12-04T08:55:47;20.30;;;15.10;;
82495;SDS011;72133;42.522;24.800;2023-12-04T08:58:12;18.98;;;14.50;;
82495;SDS011;72133;42.522;24.800;2023-12-04T09:00:38;19.17;;;14.68;;
82495;SDS011;72133;42.522;24.800;2023-12-04T09:03:08;20.98;;;14.68;;
82495;SDS011;72133;42.522;24.800;2023-12-04T09:05:35;19.48;;;14.02;;
82495;SDS011;72133;42.522;24.800;2023-12-04T09:08:01;19.67;;;14.38;;
82495;SDS011;72133;42.522;24.800;2023-12-04T09:10:27;21.38;;;14.52;;
82495;SDS011;72133;42.522;24.800;2023-12-04T09:12:53;20.33;;;15.27;;
82495;SDS011;72133;42.522;24.800;2023-12-04T09:15:19;21.90;;;14.63;;
82495;SDS011;72133;42.522;24.800;2023-12-04T09:17:45;20.80;;;14.80;;
82495;SDS011;72133;42.522;24.800;2023-12-04T09:20:11;19.27;;;15.18;;
82495;SDS011;72133;42.522;24.800;2023-12-04T09:22:36;19.92;;;15.00;;
82495;SDS011;72133;42.522;24.800;2023-12-04T09:25:07;19.85;;;14.82;;
82495;SDS011;72133;42.522;24.800;2023-12-04T09:27:34;18.55;;;14.32;;
82495;SDS011;72133;42.522;24.800;2023-12-04T09:29:59;20.67;;;15.48;;
82495;SDS011;72133;42.522;24.800;2023-12-04T09:32:25;22.48;;;16.92;;
82495;SDS011;72133;42.522;24.800;2023-12-04T09:34:51;24.67;;;17.88;;
82495;SDS011;72133;42.522;24.800;2023-12-04T09:37:17;23.17;;;18.15;;
82495;SDS011;72133;42.522;24.800;2023-12-04T09:39:42;23.52;;;18.13;;
82495;SDS011;72133;42.522;24.800;2023-12-04T09:42:08;48.35;;;29.20;;
82495;SDS011;72133;42.522;24.800;2023-12-04T09:44:34;51.95;;;30.60;;
82495;SDS011;72133;42.522;24.800;2023-12-04T09:47:02;80.78;;;40.40;;
82495;SDS011;72133;42.522;24.800;2023-12-04T09:49:28;31.55;;;22.13;;
82495;SDS011;72133;42.522;24.800;2023-12-04T09:51:56;27.80;;;21.80;;
82495;SDS011;72133;42.522;24.800;2023-12-04T09:54:22;29.10;;;21.88;;
82495;SDS011;72133;42.522;24.800;2023-12-04T09:56:49;26.67;;;20.70;;
82495;SDS011;72133;42.522;24.800;2023-12-04T09:59:15;27.95;;;20.17;;
82495;SDS011;72133;42.522;24.800;2023-12-04T10:01:42;29.98;;;21.50;;
82495;SDS011;72133;42.522;24.800;2023-12-04T10:04:09;29.30;;;23.08;;
82495;SDS011;72133;42.522;24.800;2023-12-04T10:06:38;28.92;;;22.98;;
82495;SDS011;72133;42.522;24.800;2023-12-04T10:09:04;31.20;;;23.02;;
82495;SDS011;72133;42.522;24.800;2023-12-04T10:11:39;31.30;;;23.13;;
82495;SDS011;72133;42.522;24.800;2023-12-04T10:14:09;29.20;;;22.38;;
82495;SDS011;72133;42.522;24.800;2023-12-04T10:16:44;33.00;;;24.23;;
82495;SDS011;72133;42.522;24.800;2023-12-04T10:19:19;27.75;;;21.65;;
82495;SDS011;72133;42.522;24.800;2023-12-04T10:21:46;27.90;;;19.73;;
82495;SDS011;72133;42.522;24.800;2023-12-04T10:24:26;27.58;;;20.35;;
82495;SDS011;72133;42.522;24.800;2023-12-04T10:26:57;28.58;;;18.40;;
82495;SDS011;72133;42.522;24.800;2023-12-04T10:29:23;23.85;;;17.63;;
82495;SDS011;72133;42.522;24.800;2023-12-04T10:31:51;23.00;;;16.38;;
82495;SDS011;72133;42.522;24.800;2023-12-04T10:34:18;18.63;;;13.32;;
82495;SDS011;72133;42.522;24.800;2023-12-04T10:36:44;20.17;;;15.35;;
82495;SDS011;72133;42.522;24.800;2023-12-04T10:39:11;23.17;;;16.23;;
82495;SDS011;72133;42.522;24.800;2023-12-04T10:41:38;21.58;;;17.02;;
82495;SDS011;72133;42.522;24.800;2023-12-04T10:44:04;20.52;;;15.45;;
82495;SDS011;72133;42.522;24.800;2023-12-04T10:46:30;18.65;;;14.02;;
82495;SDS011;72133;42.522;24.800;2023-12-04T10:48:56;21.40;;;15.32;;
82495;SDS011;72133;42.522;24.800;2023-12-04T10:51:22;20.02;;;15.52;;
82495;SDS011;72133;42.522;24.800;2023-12-04T10:53:49;17.17;;;13.20;;
82495;SDS011;72133;42.522;24.800;2023-12-04T10:56:18;17.08;;;13.50;;
82495;SDS011;72133;42.522;24.800;2023-12-04T10:58:49;16.27;;;12.15;;
82495;SDS011;72133;42.522;24.800;2023-12-04T11:01:16;17.38;;;13.40;;
82495;SDS011;72133;42.522;24.800;2023-12-04T11:03:51;16.00;;;12.23;;
82495;SDS011;72133;42.522;24.800;2023-12-04T11:06:20;19.92;;;12.73;;
82495;SDS011;72133;42.522;24.800;2023-12-04T11:08:47;14.38;;;11.20;;
82495;SDS011;72133;42.522;24.800;2023-12-04T11:11:22;16.25;;;12.73;;
82495;SDS011;72133;42.522;24.800;2023-12-04T11:13:54;19.00;;;13.63;;
82495;SDS011;72133;42.522;24.800;2023-12-04T11:16:27;17.00;;;13.13;;
82495;SDS011;72133;42.522;24.800;2023-12-04T11:19:00;14.88;;;12.10;;
82495;SDS011;72133;42.522;24.800;2023-12-04T11:21:29;17.30;;;14.13;;
82495;SDS011;72133;42.522;24.800;2023-12-04T11:23:56;20.30;;;17.20;;
82495;SDS011;72133;42.522;24.800;2023-12-04T11:26:23;17.15;;;13.27;;
82495;SDS011;72133;42.522;24.800;2023-12-04T11:28:50;14.75;;;11.38;;
82495;SDS011;72133;42.522;24.800;2023-12-04T11:31:16;15.45;;;12.18;;
82495;SDS011;72133;42.522;24.800;2023-12-04T11:33:42;16.05;;;11.50;;
82495;SDS011;72133;42.522;24.800;2023-12-04T11:36:09;15.10;;;11.77;;
82495;SDS011;72133;42.522;24.800;2023-12-04T11:38:43;15.65;;;11.73;;
82495;SDS011;72133;42.522;24.800;2023-12-04T11:41:21;13.40;;;10.97;;
82495;SDS011;72133;42.522;24.800;2023-12-04T11:43:47;15.90;;;11.75;;
82495;SDS011;72133;42.522;24.800;2023-12-04T11:46:13;14.88;;;11.13;;
82495;SDS011;72133;42.522;24.800;2023-12-04T11:48:45;15.40;;;11.57;;
82495;SDS011;72133;42.522;24.800;2023-12-04T11:51:12;12.65;;;10.27;;
82495;SDS011;72133;42.522;24.800;2023-12-04T11:53:41;14.48;;;9.75;;
82495;SDS011;72133;42.522;24.800;2023-12-04T11:56:10;13.13;;;10.43;;
82495;SDS011;72133;42.522;24.800;2023-12-04T11:58:43;12.32;;;9.05;;
82495;SDS011;72133;42.522;24.800;2023-12-04T12:01:09;11.65;;;9.25;;
82495;SDS011;72133;42.522;24.800;2023-12-04T12:03:35;11.35;;;8.98;;
82495;SDS011;72133;42.522;24.800;2023-12-04T12:06:00;11.90;;;8.65;;
82495;SDS011;72133;42.522;24.800;2023-12-04T12:08:27;13.40;;;8.75;;
82495;SDS011;72133;42.522;24.800;2023-12-04T12:10:54;13.68;;;10.13;;
82495;SDS011;72133;42.522;24.800;2023-12-04T12:13:20;11.05;;;8.82;;
82495;SDS011;72133;42.522;24.800;2023-12-04T12:15:46;12.10;;;9.57;;
82495;SDS011;72133;42.522;24.800;2023-12-04T12:18:13;12.65;;;10.00;;
82495;SDS011;72133;42.522;24.800;2023-12-04T12:20:38;14.35;;;9.80;;
82495;SDS011;72133;42.522;24.800;2023-12-04T12:23:04;13.50;;;9.52;;
82495;SDS011;72133;42.522;24.800;2023-12-04T12:25:30;11.80;;;8.40;;
82495;SDS011;72133;42.522;24.800;2023-12-04T12:27:56;13.35;;;8.60;;
82495;SDS011;72133;42.522;24.800;2023-12-04T12:30:21;12.85;;;9.50;;
82495;SDS011;72133;42.522;24.800;2023-12-04T12:32:47;12.68;;;9.25;;
82495;SDS011;72133;42.522;24.800;2023-12-04T12:35:13;12.98;;;8.75;;
82495;SDS011;72133;42.522;24.800;2023-12-04T12:37:39;13.80;;;10.13;;
82495;SDS011;72133;42.522;24.800;2023-12-04T12:40:05;12.70;;;10.30;;
82495;SDS011;72133;42.522;24.800;2023-12-04T12:42:34;14.05;;;10.32;;
82495;SDS011;72133;42.522;24.800;2023-12-04T12:45:01;11.73;;;9.60;;
82495;SDS011;72133;42.522;24.800;2023-12-04T12:47:29;16.35;;;11.45;;
82495;SDS011;72133;42.522;24.800;2023-12-04T12:49:55;11.93;;;9.05;;
82495;SDS011;72133;42.522;24.800;2023-12-04T12:52:21;13.55;;;10.13;;
82495;SDS011;72133;42.522;24.800;2023-12-04T12:54:47;12.77;;;10.88;;
82495;SDS011;72133;42.522;24.800;2023-12-04T12:57:13;15.48;;;11.45;;
82495;SDS011;72133;42.522;24.800;2023-12-04T12:59:39;14.77;;;11.30;;
82495;SDS011;72133;42.522;24.800;2023-12-04T13:02:05;14.48;;;10.70;;
82495;SDS011;72133;42.522;24.800;2023-12-04T13:04:41;14.57;;;10.45;;
82495;SDS011;72133;42.522;24.800;2023-12-04T13:07:07;11.80;;;9.77;;
82495;SDS011;72133;42.522;24.800;2023-12-04T13:09:33;15.23;;;11.93;;
82495;SDS011;72133;42.522;24.800;2023-12-04T13:12:00;15.15;;;11.65;;
82495;SDS011;72133;42.522;24.800;2023-12-04T13:14:29;14.45;;;12.07;;
82495;SDS011;72133;42.522;24.800;2023-12-04T13:16:55;14.25;;;11.50;;
82495;SDS011;72133;42.522;24.800;2023-12-04T13:19:22;14.15;;;11.80;;
82495;SDS011;72133;42.522;24.800;2023-12-04T13:21:48;13.65;;;10.52;;
82495;SDS011;72133;42.522;24.800;2023-12-04T13:24:14;15.07;;;10.73;;
82495;SDS011;72133;42.522;24.800;2023-12-04T13:26:39;13.40;;;10.02;;
82495;SDS011;72133;42.522;24.800;2023-12-04T13:29:05;13.32;;;10.63;;
82495;SDS011;72133;42.522;24.800;2023-12-04T13:31:33;12.48;;;10.38;;
82495;SDS011;72133;42.522;24.800;2023-12-04T13:33:59;14.30;;;10.30;;
82495;SDS011;72133;42.522;24.800;2023-12-04T13:36:25;12.13;;;9.93;;
82495;SDS011;72133;42.522;24.800;2023-12-04T13:38:52;12.73;;;9.73;;
82495;SDS011;72133;42.522;24.800;2023-12-04T13:41:18;12.40;;;9.57;;
82495;SDS011;72133;42.522;24.800;2023-12-04T13:44:02;12.57;;;10.30;;
82495;SDS011;72133;42.522;24.800;2023-12-04T13:46:29;13.35;;;10.88;;
82495;SDS011;72133;42.522;24.800;2023-12-04T13:48:58;14.30;;;10.82;;
82495;SDS011;72133;42.522;24.800;2023-12-04T13:51:24;13.07;;;10.43;;
82495;SDS011;72133;42.522;24.800;2023-12-04T13:53:50;14.05;;;9.95;;
82495;SDS011;72133;42.522;24.800;2023-12-04T13:56:21;14.27;;;10.68;;
82495;SDS011;72133;42.522;24.800;2023-12-04T13:59:01;15.38;;;11.43;;
82495;SDS011;72133;42.522;24.800;2023-12-04T14:01:29;15.73;;;11.85;;
82495;SDS011;72133;42.522;24.800;2023-12-04T14:03:55;14.73;;;11.70;;
82495;SDS011;72133;42.522;24.800;2023-12-04T14:06:26;18.23;;;12.02;;
82495;SDS011;72133;42.522;24.800;2023-12-04T14:08:53;15.73;;;12.10;;
82495;SDS011;72133;42.522;24.800;2023-12-04T14:11:19;13.57;;;10.70;;
82495;SDS011;72133;42.522;24.800;2023-12-04T14:13:44;14.32;;;11.27;;